Time;durP1;ratioP1;P1;durP2;ratioP2;P2;SDS_P1;SDS_P2;PMS_P1;PMS_P2;Temp;Humidity;BMP_temperature;BMP_pressure;BME280_temperature;BME280_humidity;BME280_pressure;Samples;Min_cycle;Max_cycle;Signal;HPM_P1;HPM_P2
2023/08/14 00:00:51;;;;;;;6.30;3.60;;;;;;;18.93;100.00;97388.47;5017332;28;20118;-61
2023/08/14 00:03:21;;;;;;;5.88;3.95;;;;;;;18.99;100.00;97375.47;5002333;28;20520;-61
2023/08/14 00:05:48;;;;;;;7.13;3.92;;;;;;;19.01;100.00;97378.69;5005911;28;20038;-60
2023/08/14 00:08:15;;;;;;;5.70;3.55;;;;;;;19.00;100.00;97371.59;4992387;28;20053;-61
2023/08/14 00:10:41;;;;;;;4.90;3.30;;;;;;;19.04;100.00;97380.00;4991559;28;20039;-61
2023/08/14 00:13:08;;;;;;;5.85;3.10;;;;;;;19.08;100.00;97379.13;5008048;28;20613;-61
2023/08/14 00:15:35;;;;;;;7.30;3.30;;;;;;;19.13;100.00;97369.97;5009578;28;20054;-61
2023/08/14 00:18:01;;;;;;;5.97;3.50;;;;;;;19.17;100.00;97367.41;5010595;28;20040;-62
2023/08/14 00:20:28;;;;;;;6.43;3.40;;;;;;;19.28;100.00;97357.03;5010227;28;20034;-61
2023/08/14 00:22:55;;;;;;;6.40;3.35;;;;;;;19.32;100.00;97349.78;4997112;28;20690;-61
2023/08/14 00:25:22;;;;;;;5.75;3.83;;;;;;;19.24;100.00;97354.88;5007195;28;20044;-61
2023/08/14 00:27:48;;;;;;;4.97;3.53;;;;;;;19.26;100.00;97357.31;5026740;28;20128;-61
2023/08/14 00:30:15;;;;;;;5.32;3.90;;;;;;;19.21;100.00;97354.69;5016964;28;20699;-61
2023/08/14 00:32:42;;;;;;;6.80;3.53;;;;;;;19.28;100.00;97349.59;5001930;28;20040;-60
2023/08/14 00:35:08;;;;;;;6.18;3.72;;;;;;;19.35;100.00;97351.91;4985596;28;20097;-61
2023/08/14 00:37:43;;;;;;;6.13;4.18;;;;;;;19.32;100.00;97353.31;5021475;28;20040;-61
2023/08/14 00:40:12;;;;;;;6.10;3.85;;;;;;;19.36;100.00;97340.59;4991649;28;20048;-61
2023/08/14 00:42:39;;;;;;;7.13;4.28;;;;;;;19.41;100.00;97341.59;5025265;28;21343;-60
2023/08/14 00:45:07;;;;;;;8.68;4.32;;;;;;;19.43;100.00;97333.88;5007962;28;20073;-61
2023/08/14 00:47:37;;;;;;;8.15;3.92;;;;;;;19.61;100.00;97323.84;4992291;28;20054;-61
2023/08/14 00:50:06;;;;;;;5.80;4.20;;;;;;;19.74;100.00;97311.97;4987937;28;20100;-61
2023/08/14 00:52:37;;;;;;;7.20;3.85;;;;;;;19.69;100.00;97301.13;4993154;28;20045;-60
2023/08/14 00:55:08;;;;;;;5.72;3.80;;;;;;;19.70;100.00;97307.41;4993838;28;20041;-61
2023/08/14 00:57:35;;;;;;;5.38;3.63;;;;;;;19.71;100.00;97296.13;4978685;28;20394;-61
2023/08/14 01:00:04;;;;;;;6.93;3.72;;;;;;;19.75;100.00;97294.34;5015282;28;20056;-61
2023/08/14 01:02:33;;;;;;;5.95;3.42;;;;;;;19.79;100.00;97299.22;4986623;28;20039;-61
2023/08/14 01:05:00;;;;;;;6.78;3.50;;;;;;;19.81;100.00;97297.78;4980883;28;20661;-61
2023/08/14 01:07:29;;;;;;;5.13;3.58;;;;;;;19.81;100.00;97296.97;4997915;28;20036;-61
2023/08/14 01:09:56;;;;;;;8.13;3.60;;;;;;;19.80;100.00;97309.09;4992789;28;20417;-61
2023/08/14 01:12:43;;;;;;;6.32;3.70;;;;;;;19.80;100.00;97318.16;5007712;28;20047;-61
2023/08/14 01:15:13;;;;;;;7.90;3.50;;;;;;;19.81;100.00;97336.25;5019055;28;20665;-61
2023/08/14 01:17:46;;;;;;;5.30;3.83;;;;;;;19.95;100.00;97332.59;4983943;28;20680;-60
2023/08/14 01:20:17;;;;;;;7.05;3.72;;;;;;;20.08;100.00;97323.50;4979304;28;20054;-60
2023/08/14 01:23:30;;;;;;;5.97;3.45;;;;;;;20.22;100.00;97315.16;4997840;28;20130;-61
2023/08/14 01:26:00;;;;;;;7.82;3.40;;;;;;;20.18;100.00;97322.41;5005041;28;20116;-61
2023/08/14 01:28:28;;;;;;;5.65;3.70;;;;;;;20.12;100.00;97327.22;5003961;28;20060;-60
2023/08/14 01:30:56;;;;;;;6.13;3.15;;;;;;;20.11;100.00;97328.34;5013465;28;20066;-61
2023/08/14 01:33:23;;;;;;;5.93;3.72;;;;;;;20.09;100.00;97338.06;4994527;28;20119;-62
2023/08/14 01:36:06;;;;;;;5.28;3.55;;;;;;;20.14;100.00;97333.22;5029890;28;20047;-61
2023/08/14 01:38:45;;;;;;;5.43;3.22;;;;;;;20.11;100.00;97339.34;4990969;28;20079;-61
2023/08/14 01:41:19;;;;;;;7.10;3.70;;;;;;;20.09;100.00;97344.34;4992742;28;20047;-61
2023/08/14 01:43:52;;;;;;;7.63;4.15;;;;;;;20.13;100.00;97339.84;5014246;28;20129;-60
2023/08/14 01:46:21;;;;;;;5.60;3.67;;;;;;;20.14;100.00;97327.75;4991080;28;20039;-60
2023/08/14 01:48:49;;;;;;;6.40;4.15;;;;;;;20.10;100.00;97329.50;5015118;28;20090;-61
2023/08/14 01:51:18;;;;;;;7.55;4.45;;;;;;;20.17;100.00;97333.72;5016274;28;20048;-61
2023/08/14 01:53:46;;;;;;;10.65;4.88;;;;;;;20.17;100.00;97333.72;4983516;28;20117;-61
2023/08/14 01:56:13;;;;;;;8.25;4.85;;;;;;;20.17;100.00;97331.78;4967957;28;20047;-61
2023/08/14 01:58:40;;;;;;;9.15;5.63;;;;;;;20.10;100.00;97325.91;4994067;28;20038;-61
2023/08/14 02:01:07;;;;;;;10.73;4.53;;;;;;;19.98;100.00;97338.31;5011101;28;20102;-61
2023/08/14 02:03:34;;;;;;;11.15;5.00;;;;;;;19.97;100.00;97341.34;4995861;28;20084;-61
2023/08/14 02:06:00;;;;;;;9.00;5.22;;;;;;;19.94;100.00;97328.25;4997846;28;20139;-61
2023/08/14 02:08:27;;;;;;;9.57;5.05;;;;;;;19.84;100.00;97343.88;5009822;28;20137;-61
2023/08/14 02:10:54;;;;;;;5.97;4.10;;;;;;;19.73;100.00;97334.25;5023051;28;20621;-61
2023/08/14 02:13:21;;;;;;;7.53;4.65;;;;;;;19.59;100.00;97357.13;4992265;28;20544;-61
2023/08/14 02:15:48;;;;;;;8.63;4.53;;;;;;;19.63;100.00;97347.13;5003114;28;20035;-61
2023/08/14 02:18:14;;;;;;;7.75;4.63;;;;;;;19.70;100.00;97316.47;4999729;28;20058;-61
2023/08/14 02:20:46;;;;;;;8.45;4.00;;;;;;;19.80;100.00;97287.94;4995838;28;20048;-61
2023/08/14 02:23:13;;;;;;;8.15;4.03;;;;;;;19.83;100.00;97275.50;5010818;28;20502;-61
2023/08/14 02:25:43;;;;;;;8.30;4.20;;;;;;;19.85;100.00;97265.00;5010886;28;20459;-61
2023/08/14 02:28:11;;;;;;;9.00;4.05;;;;;;;19.92;100.00;97259.03;4997404;28;20581;-61
2023/08/14 02:30:42;;;;;;;6.75;3.70;;;;;;;19.89;100.00;97246.75;4999272;28;20054;-61
2023/08/14 02:33:09;;;;;;;;;;;;;;;19.87;100.00;97235.28;4982299;28;20051;-61
2023/08/14 02:35:36;;;;;;;7.70;3.67;;;;;;;19.84;100.00;97236.72;5009356;28;19924;-61
2023/08/14 02:38:05;;;;;;;5.93;3.38;;;;;;;19.83;100.00;97240.56;4995762;28;20054;-61
2023/08/14 02:40:32;;;;;;;6.03;3.53;;;;;;;19.85;100.00;97241.09;4999448;28;20038;-61
2023/08/14 02:43:01;;;;;;;6.60;3.40;;;;;;;19.86;100.00;97228.97;5012296;28;20040;-61
2023/08/14 02:45:29;;;;;;;8.07;3.80;;;;;;;19.80;100.00;97230.25;4994073;28;20562;-61
2023/08/14 02:47:56;;;;;;;6.18;4.07;;;;;;;19.75;100.00;97247.66;4988138;28;20042;-61
2023/08/14 02:50:23;;;;;;;6.13;3.72;;;;;;;19.67;100.00;97255.84;4998084;28;20082;-62
2023/08/14 02:52:49;;;;;;;7.45;3.92;;;;;;;19.59;100.00;97271.16;5017934;28;20038;-61
2023/08/14 02:55:16;;;;;;;6.70;4.07;;;;;;;19.49;100.00;97285.94;5023915;28;20587;-61
2023/08/14 02:57:43;;;;;;;6.00;4.03;;;;;;;19.36;100.00;97291.19;5018211;28;20494;-61
2023/08/14 03:00:10;;;;;;;5.55;3.72;;;;;;;19.35;100.00;97292.31;5011424;28;20047;-61
2023/08/14 03:02:36;;;;;;;7.75;4.25;;;;;;;19.23;100.00;97314.84;4994997;28;20058;-61
2023/08/14 03:05:03;;;;;;;7.60;3.70;;;;;;;19.30;100.00;97297.94;4982300;28;20047;-61
2023/08/14 03:07:30;;;;;;;6.72;3.92;;;;;;;19.30;100.00;97295.19;5003377;28;20049;-61
2023/08/14 03:09:57;;;;;;;5.55;3.90;;;;;;;19.12;100.00;97334.59;5019723;28;20063;-61
2023/08/14 03:12:23;;;;;;;6.68;4.03;;;;;;;19.08;100.00;97356.34;4990852;28;20071;-61
2023/08/14 03:14:50;;;;;;;6.78;4.25;;;;;;;19.07;100.00;97355.56;4975144;28;20044;-61
2023/08/14 03:17:16;;;;;;;7.20;4.15;;;;;;;19.04;100.00;97360.78;4975416;28;20044;-61
2023/08/14 03:19:43;;;;;;;8.02;4.13;;;;;;;19.06;100.00;97353.13;4993138;28;20066;-61
2023/08/14 03:22:09;;;;;;;7.22;4.10;;;;;;;19.00;100.00;97363.34;5003119;28;20039;-61
2023/08/14 03:24:36;;;;;;;6.38;4.18;;;;;;;19.01;100.00;97361.44;4996742;28;20128;-61
2023/08/14 03:27:03;;;;;;;6.47;4.47;;;;;;;19.01;100.00;97369.66;4982049;28;20038;-61
2023/08/14 03:29:29;;;;;;;7.30;4.35;;;;;;;18.94;100.00;97376.38;4976724;28;20058;-61
2023/08/14 03:31:56;;;;;;;5.50;3.95;;;;;;;18.92;100.00;97380.53;4929426;28;20051;-61
2023/08/14 03:34:23;;;;;;;6.13;4.25;;;;;;;18.94;100.00;97378.31;4993948;28;20046;-61
2023/08/14 03:36:50;;;;;;;5.75;4.05;;;;;;;18.93;100.00;97379.41;5012764;28;20045;-61
2023/08/14 03:39:18;;;;;;;8.30;4.20;;;;;;;18.87;100.00;97375.16;5008644;28;20654;-61
2023/08/14 03:41:45;;;;;;;5.55;3.97;;;;;;;18.76;100.00;97363.59;4990296;28;20041;-61
2023/08/14 03:44:11;;;;;;;6.13;3.80;;;;;;;18.75;100.00;97362.78;5006864;28;20041;-61
2023/08/14 03:46:38;;;;;;;6.88;3.47;;;;;;;18.76;100.00;97361.66;4987972;28;20108;-61
2023/08/14 03:49:05;;;;;;;6.60;3.55;;;;;;;18.66;100.00;97361.88;5003626;28;20052;-61
2023/08/14 03:51:31;;;;;;;5.32;2.83;;;;;;;18.67;100.00;97336.06;5011512;28;20050;-61
2023/08/14 03:53:58;;;;;;;5.88;2.65;;;;;;;18.57;100.00;97346.13;4999117;28;21944;-61
2023/08/14 03:56:25;;;;;;;6.45;2.88;;;;;;;18.58;100.00;97316.78;4986859;28;20053;-61
2023/08/14 03:58:52;;;;;;;5.65;2.55;;;;;;;18.49;100.00;97316.69;4969375;28;20531;-61
2023/08/14 04:01:18;;;;;;;4.90;2.85;;;;;;;18.40;100.00;97329.50;5010433;28;20083;-61
2023/08/14 04:03:45;;;;;;;6.22;3.13;;;;;;;18.43;100.00;97309.69;4997033;28;20097;-61
2023/08/14 04:06:12;;;;;;;5.57;2.45;;;;;;;18.44;100.00;97327.75;4984200;28;20508;-61
2023/08/14 04:08:38;;;;;;;6.35;3.30;;;;;;;18.41;100.00;97339.31;5007415;28;20445;-61
2023/08/14 04:11:05;;;;;;;4.25;2.38;;;;;;;18.44;100.00;97334.06;5004641;28;20046;-62
2023/08/14 04:13:31;;;;;;;6.53;2.63;;;;;;;18.43;100.00;97337.91;4981904;28;20114;-61
2023/08/14 04:16:03;;;;;;;5.75;2.38;;;;;;;18.33;100.00;97347.13;5001060;28;20064;-61
2023/08/14 04:18:30;;;;;;;3.88;2.35;;;;;;;18.35;100.00;97335.06;5004057;28;20040;-61
2023/08/14 04:20:57;;;;;;;4.80;2.22;;;;;;;18.30;100.00;97327.75;4978057;28;20138;-61
2023/08/14 04:23:25;;;;;;;3.72;2.28;;;;;;;18.25;100.00;97325.94;5028317;28;20037;-60
2023/08/14 04:25:53;;;;;;;5.97;2.60;;;;;;;18.25;100.00;97328.69;4973047;28;20664;-61
2023/08/14 04:28:20;;;;;;;3.28;2.10;;;;;;;18.33;100.00;97295.06;4969878;28;20113;-61
2023/08/14 04:30:47;;;;;;;6.60;2.63;;;;;;;18.38;100.00;97296.91;4984727;28;20035;-61
2023/08/14 04:33:14;;;;;;;5.82;3.00;;;;;;;18.43;100.00;97290.50;4985906;28;20035;-61
2023/08/14 04:35:42;;;;;;;5.13;2.25;;;;;;;18.44;100.00;97295.69;4978675;28;20042;-61
2023/08/14 04:38:10;;;;;;;4.75;2.00;;;;;;;18.54;100.00;97296.59;4976378;28;20050;-61
2023/08/14 04:40:40;;;;;;;4.22;2.10;;;;;;;18.47;100.00;97294.25;4980841;28;20054;-61
2023/08/14 04:43:06;;;;;;;4.25;2.20;;;;;;;18.33;100.00;97308.75;4981555;28;20528;-59
2023/08/14 04:45:34;;;;;;;4.95;2.30;;;;;;;18.37;100.00;97297.19;4981277;28;20149;-61
2023/08/14 04:48:00;;;;;;;5.72;2.20;;;;;;;18.43;100.00;97291.31;4980621;28;20038;-59
2023/08/14 04:50:28;;;;;;;4.22;2.15;;;;;;;18.54;100.00;97286.41;4984089;28;20051;-61
2023/08/14 04:52:55;;;;;;;4.22;1.73;;;;;;;18.56;100.00;97277.88;5009039;28;20522;-61
2023/08/14 04:55:23;;;;;;;4.82;2.28;;;;;;;18.48;100.00;97286.84;5002241;28;20031;-61
2023/08/14 04:57:51;;;;;;;4.75;2.13;;;;;;;18.53;100.00;97279.31;5009855;28;20032;-61
2023/08/14 05:00:18;;;;;;;4.45;2.20;;;;;;;18.52;100.00;97268.66;4985623;28;20054;-61
2023/08/14 05:02:45;;;;;;;3.63;1.80;;;;;;;18.45;100.00;97274.56;5003584;28;20113;-61
2023/08/14 05:05:12;;;;;;;4.43;1.90;;;;;;;18.43;100.00;97280.34;4983034;28;20063;-61
2023/08/14 05:07:38;;;;;;;3.80;1.88;;;;;;;18.57;100.00;97265.78;5033925;28;20042;-61
2023/08/14 05:10:05;;;;;;;3.13;1.77;;;;;;;18.64;100.00;97257.19;4982847;28;20474;-61
2023/08/14 05:12:32;;;;;;;3.92;1.80;;;;;;;18.65;100.00;97258.78;4983472;28;20126;-61
2023/08/14 05:14:59;;;;;;;3.70;1.80;;;;;;;18.55;100.00;97252.41;5008958;28;20048;-61
2023/08/14 05:17:26;;;;;;;3.20;1.70;;;;;;;18.54;100.00;97256.25;4966385;28;20069;-61
2023/08/14 05:19:52;;;;;;;8.02;1.80;;;;;;;18.60;100.00;97248.75;4981013;28;20046;-61
2023/08/14 05:22:19;;;;;;;5.65;2.10;;;;;;;18.66;100.00;97249.44;5011988;28;20044;-61
2023/08/14 05:24:46;;;;;;;4.00;1.58;;;;;;;18.55;100.00;97257.91;5002031;28;20042;-63
2023/08/14 05:27:13;;;;;;;3.65;1.48;;;;;;;18.58;100.00;97254.53;4972378;28;20034;-60
2023/08/14 05:29:40;;;;;;;4.20;1.70;;;;;;;18.62;100.00;97246.50;4973150;28;20690;-60
2023/08/14 05:32:06;;;;;;;4.25;1.70;;;;;;;18.56;100.00;97250.47;4980753;28;20046;-60
2023/08/14 05:34:33;;;;;;;5.38;1.70;;;;;;;18.55;100.00;97257.91;5003727;28;20058;-60
2023/08/14 05:36:59;;;;;;;4.78;2.00;;;;;;;18.64;100.00;97237.97;5000326;28;20046;-60
2023/08/14 05:39:26;;;;;;;3.83;1.83;;;;;;;18.65;100.00;97240.38;4972918;28;20070;-61
2023/08/14 05:41:53;;;;;;;3.38;1.52;;;;;;;18.74;100.00;97242.41;4978836;28;20054;-60
2023/08/14 05:44:20;;;;;;;3.70;1.55;;;;;;;18.91;100.00;97242.56;5001364;28;20498;-59
2023/08/14 05:46:46;;;;;;;4.28;1.70;;;;;;;18.90;100.00;97227.22;4974658;28;20049;-59
2023/08/14 05:49:16;;;;;;;2.72;1.35;;;;;;;19.00;100.00;97225.34;5001119;28;20045;-60
2023/08/14 05:51:43;;;;;;;4.35;1.60;;;;;;;18.99;100.00;97230.03;4992655;28;20111;-61
2023/08/14 05:54:09;;;;;;;4.03;1.50;;;;;;;19.00;100.00;97234.41;5001488;28;20517;-61
2023/08/14 05:56:36;;;;;;;3.85;1.63;;;;;;;18.97;100.00;97235.00;4990615;28;20544;-60
2023/08/14 05:59:02;;;;;;;3.20;1.50;;;;;;;19.03;100.00;97233.78;4982430;28;20049;-60
2023/08/14 06:01:29;;;;;;;3.47;1.60;;;;;;;19.04;100.00;97234.59;5001813;28;20097;-58
2023/08/14 06:03:56;;;;;;;3.08;1.48;;;;;;;19.08;100.00;97230.13;5011738;28;20053;-60
2023/08/14 06:06:22;;;;;;;3.10;1.80;;;;;;;19.08;100.00;97228.19;4998808;28;20057;-62
2023/08/14 06:08:49;;;;;;;6.25;1.52;;;;;;;19.11;100.00;97235.00;5010714;28;20502;-60
2023/08/14 06:11:16;;;;;;;6.05;1.52;;;;;;;19.14;100.00;97239.06;5012105;28;20129;-61
2023/08/14 06:13:43;;;;;;;4.53;1.58;;;;;;;19.14;100.00;97239.88;5008430;28;20116;-61
2023/08/14 06:16:09;;;;;;;4.35;1.60;;;;;;;19.18;100.00;97237.31;5005334;28;20046;-62
2023/08/14 06:18:36;;;;;;;5.20;1.70;;;;;;;19.18;100.00;97243.63;4994934;28;20054;-63
2023/08/14 06:21:03;;;;;;;5.93;1.73;;;;;;;19.21;100.00;97242.19;5003898;28;20178;-61
2023/08/14 06:23:29;;;;;;;2.42;1.40;;;;;;;19.20;100.00;97243.31;5014363;28;20105;-60
2023/08/14 06:25:57;;;;;;;2.95;1.70;;;;;;;19.17;100.00;97249.41;5013390;28;20048;-62
2023/08/14 06:28:24;;;;;;;2.85;1.55;;;;;;;19.12;100.00;97253.06;4993279;28;20041;-62
2023/08/14 06:30:51;;;;;;;4.03;1.77;;;;;;;19.12;100.00;97244.84;4996544;28;20044;-59
2023/08/14 06:33:17;;;;;;;4.28;1.55;;;;;;;19.16;100.00;97243.09;4998182;28;20044;-59
2023/08/14 06:35:44;;;;;;;6.18;2.03;;;;;;;19.18;100.00;97242.78;5007756;28;20046;-59
2023/08/14 06:38:11;;;;;;;4.15;1.60;;;;;;;19.25;100.00;97248.66;5024861;28;20086;-60
2023/08/14 06:40:38;;;;;;;4.55;1.48;;;;;;;19.39;100.00;97245.84;5001866;28;20051;-59
2023/08/14 06:43:06;;;;;;;4.35;2.10;;;;;;;19.48;100.00;97245.91;4998901;28;20038;-59
2023/08/14 06:45:33;;;;;;;4.07;1.70;;;;;;;19.61;100.00;97236.75;4992141;28;20549;-59
2023/08/14 06:47:59;;;;;;;3.17;1.60;;;;;;;19.70;100.00;97247.81;4999173;28;20501;-59
2023/08/14 06:50:26;;;;;;;4.50;1.50;;;;;;;19.75;100.00;97249.59;5023392;28;20036;-59
2023/08/14 06:52:53;;;;;;;3.08;1.40;;;;;;;19.89;100.00;97241.25;5028326;28;20079;-63
2023/08/14 06:55:22;;;;;;;4.80;2.20;;;;;;;19.98;100.00;97244.88;5008701;28;20044;-63
2023/08/14 06:57:49;;;;;;;7.00;1.70;;;;;;;20.11;100.00;97242.34;4996997;28;20544;-60
2023/08/14 07:00:16;;;;;;;4.55;1.60;;;;;;;20.24;100.00;97246.09;5009599;28;20063;-60
2023/08/14 07:02:45;;;;;;;3.30;1.55;;;;;;;20.35;100.00;97239.16;4994719;28;20043;-60
2023/08/14 07:05:12;;;;;;;2.85;1.58;;;;;;;20.47;100.00;97240.50;5026322;28;20040;-60
2023/08/14 07:07:39;;;;;;;2.92;1.55;;;;;;;20.54;100.00;97233.38;5011745;28;20096;-60
2023/08/14 07:10:06;;;;;;;3.00;1.88;;;;;;;20.66;100.00;97231.94;4996018;28;20042;-60
2023/08/14 07:12:33;;;;;;;4.38;2.08;;;;;;;20.75;100.00;97226.47;4995871;28;20126;-60
2023/08/14 07:15:03;;;;;;;3.35;1.70;;;;;;;20.82;100.00;97221.28;5002025;28;20056;-60
2023/08/14 07:17:32;;;;;;;3.25;1.80;;;;;;;20.92;100.00;97222.94;5011192;28;20052;-60
2023/08/14 07:19:58;;;;;;;3.70;1.80;;;;;;;21.00;100.00;97226.81;5023750;28;20125;-60
2023/08/14 07:22:25;;;;;;;3.80;1.80;;;;;;;21.14;100.00;97227.47;5019626;28;20028;-60
2023/08/14 07:24:52;;;;;;;3.70;1.60;;;;;;;21.28;100.00;97220.94;4992326;28;20079;-60
2023/08/14 07:27:18;;;;;;;3.67;1.80;;;;;;;21.42;100.00;97226.28;4990415;28;20538;-60
2023/08/14 07:29:47;;;;;;;3.42;1.67;;;;;;;21.47;100.00;97226.09;4985941;28;20046;-60
2023/08/14 07:32:15;;;;;;;5.80;1.80;;;;;;;21.57;99.70;97224.94;4986035;28;20134;-60
2023/08/14 07:34:42;;;;;;;3.88;1.60;;;;;;;21.68;98.84;97220.69;4999872;28;20066;-60
2023/08/14 07:37:08;;;;;;;3.75;1.63;;;;;;;21.82;100.00;97220.50;4979046;28;20035;-60
2023/08/14 07:39:35;;;;;;;3.00;1.58;;;;;;;21.83;98.64;97218.56;4965088;28;20050;-60
2023/08/14 07:42:01;;;;;;;3.72;1.48;;;;;;;21.93;100.00;97218.19;4969947;28;20045;-60
2023/08/14 07:44:28;;;;;;;3.60;1.73;;;;;;;22.02;99.93;97220.91;4996679;28;20050;-60
2023/08/14 07:46:54;;;;;;;3.90;1.30;;;;;;;22.14;99.70;97224.91;5010451;28;20133;-60
2023/08/14 07:49:21;;;;;;;4.03;1.77;;;;;;;22.21;99.54;97220.50;5023640;28;20426;-60
2023/08/14 07:51:48;;;;;;;2.85;1.60;;;;;;;22.30;98.33;97222.41;4985637;28;20095;-60
2023/08/14 07:54:14;;;;;;;4.15;1.40;;;;;;;22.39;96.82;97220.41;4980321;28;20051;-60
2023/08/14 07:56:41;;;;;;;4.82;2.20;;;;;;;22.54;96.65;97221.75;4991340;28;20070;-60
2023/08/14 07:59:11;;;;;;;4.32;1.40;;;;;;;22.64;95.44;97220.59;5015301;28;20044;-60
2023/08/14 08:01:38;;;;;;;3.53;1.27;;;;;;;22.77;95.65;97218.69;4999634;28;20046;-60
2023/08/14 08:04:05;;;;;;;5.78;1.90;;;;;;;22.92;97.17;97220.03;5024885;28;20028;-60
2023/08/14 08:06:31;;;;;;;2.83;1.52;;;;;;;22.95;95.63;97224.91;5003274;28;20449;-60
2023/08/14 08:09:09;;;;;;;4.00;1.80;;;;;;;23.04;94.64;97226.78;5008959;28;20040;-60
2023/08/14 08:11:36;;;;;;;5.45;1.92;;;;;;;23.10;95.53;97225.41;4988234;28;20043;-60
2023/08/14 08:14:05;;;;;;;4.63;1.63;;;;;;;23.17;95.24;97230.38;5000722;28;20035;-60
2023/08/14 08:16:36;;;;;;;3.78;1.98;;;;;;;23.28;95.86;97228.81;4992945;28;20047;-60
2023/08/14 08:19:05;;;;;;;4.97;2.78;;;;;;;23.37;94.50;97242.59;5002932;28;20039;-60
2023/08/14 08:21:32;;;;;;;2.88;1.67;;;;;;;23.49;95.61;97255.63;5002154;28;20051;-61
2023/08/14 08:23:59;;;;;;;3.90;1.80;;;;;;;23.57;93.71;97249.22;4993276;28;20041;-60
2023/08/14 08:26:25;;;;;;;4.93;1.90;;;;;;;23.63;94.90;97247.84;4968843;28;20045;-61
2023/08/14 08:28:52;;;;;;;5.45;2.35;;;;;;;23.73;92.10;97243.03;5006569;28;20582;-60
2023/08/14 08:31:18;;;;;;;5.15;1.85;;;;;;;23.89;93.22;97259.75;5001245;28;20044;-60
2023/08/14 08:33:45;;;;;;;3.33;1.98;;;;;;;23.96;90.65;97256.44;5028807;28;20031;-60
2023/08/14 08:36:13;;;;;;;4.38;2.22;;;;;;;24.07;90.60;97262.31;5017093;28;20054;-60
2023/08/14 08:38:39;;;;;;;4.93;2.40;;;;;;;24.21;88.06;97262.00;4974178;28;20713;-60
2023/08/14 08:41:08;;;;;;;4.63;2.10;;;;;;;24.29;90.00;97256.34;4992190;28;20055;-60
2023/08/14 08:43:36;;;;;;;5.30;1.80;;;;;;;24.35;88.71;97258.88;4994200;28;20667;-60
2023/08/14 08:46:10;;;;;;;5.03;2.15;;;;;;;24.42;88.34;97256.34;5002758;28;20670;-60
2023/08/14 08:48:41;;;;;;;5.55;2.00;;;;;;;24.52;88.44;97261.44;5004931;28;20034;-60
2023/08/14 08:51:08;;;;;;;4.80;2.67;;;;;;;24.66;89.18;97254.72;5009396;28;20038;-61
2023/08/14 08:53:36;;;;;;;3.50;2.17;;;;;;;24.67;85.37;97254.38;5027465;28;20430;-60
2023/08/14 08:56:03;;;;;;;6.38;2.33;;;;;;;24.74;85.92;97255.75;4998680;28;20639;-60
2023/08/14 08:58:30;;;;;;;5.07;2.40;;;;;;;24.80;85.30;97260.69;4997853;28;20498;-60
2023/08/14 09:00:58;;;;;;;8.13;2.88;;;;;;;24.98;84.84;97259.66;4998595;28;20123;-60
2023/08/14 09:03:24;;;;;;;5.20;2.67;;;;;;;25.15;85.67;97255.78;4997002;28;20064;-60
2023/08/14 09:05:51;;;;;;;4.53;2.70;;;;;;;25.36;82.14;97258.34;5012388;28;20125;-60
2023/08/14 09:08:18;;;;;;;6.68;2.67;;;;;;;25.43;82.06;97254.97;5003618;28;20046;-60
2023/08/14 09:10:45;;;;;;;6.25;2.40;;;;;;;25.55;81.31;97259.66;4989348;28;20547;-60
2023/08/14 09:13:13;;;;;;;5.13;2.80;;;;;;;25.73;81.46;97259.34;4965585;28;20033;-61
2023/08/14 09:15:45;;;;;;;10.07;3.30;;;;;;;25.93;78.67;97257.47;5010799;28;20121;-61
2023/08/14 09:18:12;;;;;;;5.55;2.63;;;;;;;26.14;80.21;97260.00;5037338;28;20047;-61
2023/08/14 09:20:39;;;;;;;4.88;2.80;;;;;;;26.22;77.10;97252.66;4973651;28;20046;-60
2023/08/14 09:23:12;;;;;;;5.95;2.40;;;;;;;26.36;77.05;97250.25;4998087;28;20580;-61
2023/08/14 09:25:45;;;;;;;4.75;2.83;;;;;;;26.55;79.06;97251.47;4988951;28;20051;-61
2023/08/14 09:28:12;;;;;;;5.40;3.03;;;;;;;26.52;76.62;97245.81;4993710;28;20048;-62
2023/08/14 09:30:40;;;;;;;5.13;3.28;;;;;;;26.55;76.51;97248.69;5010267;28;20429;-61
2023/08/14 09:33:11;;;;;;;4.45;2.70;;;;;;;26.66;79.46;97239.78;5016281;28;20525;-62
2023/08/14 09:35:39;;;;;;;6.20;2.67;;;;;;;26.73;77.01;97243.56;5011108;28;20040;-61
2023/08/14 09:38:05;;;;;;;4.40;2.80;;;;;;;26.81;74.71;97244.50;5012412;28;20123;-61
2023/08/14 09:40:32;;;;;;;5.00;2.55;;;;;;;26.92;73.87;97236.41;4999282;28;20668;-61
2023/08/14 09:43:00;;;;;;;4.47;2.83;;;;;;;27.03;72.64;97238.63;5027678;28;20049;-61
2023/08/14 09:45:34;;;;;;;6.20;2.97;;;;;;;27.18;73.62;97236.94;5017678;28;20505;-62
2023/08/14 09:48:01;;;;;;;6.57;2.67;;;;;;;27.41;72.71;97239.78;4996496;28;20053;-61
2023/08/14 09:50:28;;;;;;;4.78;2.80;;;;;;;27.61;72.44;97246.16;4998646;28;20119;-62
2023/08/14 09:52:59;;;;;;;5.50;2.75;;;;;;;27.77;71.06;97242.47;5015012;28;20103;-62
2023/08/14 09:55:27;;;;;;;4.68;2.58;;;;;;;27.87;68.63;97241.03;5006827;28;20033;-61
2023/08/14 09:57:57;;;;;;;6.80;2.95;;;;;;;27.68;68.98;97239.94;5012650;28;20039;-61
2023/08/14 10:00:31;;;;;;;5.53;2.60;;;;;;;27.58;69.56;97244.09;5005161;28;20498;-61
2023/08/14 10:02:59;;;;;;;5.10;2.65;;;;;;;27.61;67.38;97240.59;5020904;28;20317;-61
2023/08/14 10:05:30;;;;;;;;;;;;;;;27.61;68.98;97229.47;4988818;28;20459;-61
2023/08/14 10:07:57;;;;;;;5.57;3.20;;;;;;;27.64;68.61;97234.28;4997413;28;20450;-61
2023/08/14 10:10:27;;;;;;;6.03;2.90;;;;;;;27.77;67.07;97239.66;4971333;28;20050;-61
2023/08/14 10:13:05;;;;;;;4.85;3.08;;;;;;;27.82;67.75;97233.78;4991830;28;20035;-62
2023/08/14 10:15:36;;;;;;;7.15;2.58;;;;;;;27.82;66.39;97224.66;5002349;28;20035;-61
2023/08/14 10:18:13;;;;;;;5.50;2.65;;;;;;;27.80;66.99;97230.59;4981067;28;20039;-61
2023/08/14 10:20:43;;;;;;;6.32;2.70;;;;;;;27.87;65.79;97225.16;4975574;28;20043;-62
2023/08/14 10:23:13;;;;;;;5.43;2.78;;;;;;;27.99;66.29;97226.94;5001092;28;20085;-61
2023/08/14 10:25:42;;;;;;;4.60;3.03;;;;;;;28.11;63.21;97228.72;5022401;28;20113;-61
2023/08/14 10:28:09;;;;;;;5.65;3.15;;;;;;;28.21;64.44;97229.25;5020586;28;20475;-61
2023/08/14 10:30:36;;;;;;;5.60;2.80;;;;;;;28.36;63.94;97231.13;5012559;28;20049;-61
2023/08/14 10:33:05;;;;;;;8.30;3.00;;;;;;;28.40;62.53;97228.38;4996953;28;20672;-62
2023/08/14 10:36:04;;;;;;;6.97;3.00;;;;;;;28.64;63.44;97229.94;5001504;28;20040;-62
2023/08/14 10:38:46;;;;;;;7.43;3.70;;;;;;;28.72;61.13;97230.84;4952686;28;20065;-62
2023/08/14 10:41:16;;;;;;;5.00;2.92;;;;;;;28.66;61.66;97229.56;5006351;28;20410;-62
2023/08/14 10:43:50;;;;;;;5.38;3.03;;;;;;;28.73;61.15;97235.22;4999853;28;20496;-62
2023/08/14 10:46:17;;;;;;;4.93;3.22;;;;;;;28.83;61.15;97233.78;5027186;28;20098;-62
2023/08/14 10:48:48;;;;;;;4.95;2.70;;;;;;;28.93;60.53;97240.72;4979612;28;20092;-62
2023/08/14 10:51:19;;;;;;;;;;;;;;;29.08;61.52;97228.53;4978880;28;20736;-62
2023/08/14 10:53:46;;;;;;;4.45;2.97;;;;;;;29.10;60.86;97232.97;5003585;28;21698;-62
2023/08/14 10:56:13;;;;;;;4.28;2.55;;;;;;;28.79;61.87;97233.72;4991851;28;20037;-62
2023/08/14 10:58:47;;;;;;;4.75;2.88;;;;;;;28.89;61.17;97239.84;5007858;28;20066;-62
2023/08/14 11:01:14;;;;;;;4.05;2.53;;;;;;;28.83;60.50;97240.13;4974062;28;20042;-62
2023/08/14 11:04:05;;;;;;;4.10;2.63;;;;;;;29.05;60.19;97239.66;5003841;28;20056;-62
2023/08/14 11:07:05;;;;;;;4.13;2.55;;;;;;;29.13;61.09;97246.13;4977021;28;20453;-62
2023/08/14 11:09:33;;;;;;;11.07;3.25;;;;;;;29.19;59.34;97237.03;4986009;28;20049;-62
2023/08/14 11:12:08;;;;;;;5.50;2.95;;;;;;;29.26;59.21;97241.09;4980114;28;20496;-62
2023/08/14 11:14:37;;;;;;;5.55;2.67;;;;;;;29.21;58.43;97236.66;4933349;28;20156;-62
2023/08/14 11:17:04;;;;;;;6.03;3.00;;;;;;;29.45;57.89;97235.34;4981272;28;20045;-62
2023/08/14 11:19:34;;;;;;;5.15;2.58;;;;;;;29.68;56.77;97237.22;5000021;28;20055;-62
2023/08/14 11:22:01;;;;;;;4.18;2.67;;;;;;;29.63;59.63;97223.59;5004710;28;20575;-62
2023/08/14 11:24:29;;;;;;;4.53;2.33;;;;;;;29.44;62.50;97230.16;5011616;28;20035;-62
2023/08/14 11:27:00;;;;;;;6.10;2.55;;;;;;;29.36;63.12;97214.53;5025853;28;20140;-62
2023/08/14 11:29:27;;;;;;;4.20;2.25;;;;;;;29.07;64.78;97213.00;5008196;28;20048;-62
2023/08/14 11:32:00;;;;;;;3.63;2.63;;;;;;;28.81;67.31;97211.88;5004263;28;20119;-62
2023/08/14 11:34:39;;;;;;;5.03;2.53;;;;;;;28.68;67.01;97213.28;5001204;28;20046;-62